Time;durP1;ratioP1;P1;durP2;ratioP2;P2;SDS_P1;SDS_P2;PMS_P1;PMS_P2;Temp;Humidity;BMP_temperature;BMP_pressure;BME280_temperature;BME280_humidity;BME280_pressure;Samples;Min_cycle;Max_cycle;Signal;HPM_P1;HPM_P2
2021/03/10 00:00:48;;;;;;;;;10.00;9.00;;;;;10.20;40.76;98703.81;4723817;29;102903;-96
2021/03/10 00:03:16;;;;;;;;;10.00;10.00;;;;;10.22;40.62;98714.44;4741076;29;109309;-96
2021/03/10 00:05:44;;;;;;;;;8.25;4.00;;;;;10.22;40.64;98706.34;4693400;29;103741;-96
2021/03/10 00:08:12;;;;;;;;;15.75;10.00;;;;;10.22;40.42;98703.63;4705839;29;102662;-96
2021/03/10 00:10:40;;;;;;;;;11.75;10.75;;;;;10.18;40.73;98708.56;4710674;29;104671;-96
2021/03/10 00:13:08;;;;;;;;;9.00;7.75;;;;;10.22;40.48;98717.16;4691644;29;106413;-96
2021/03/10 00:15:35;;;;;;;;;9.25;9.00;;;;;10.17;40.49;98714.19;4715653;29;102126;-96
2021/03/10 00:18:03;;;;;;;;;11.00;9.00;;;;;10.19;40.89;98712.97;4712216;29;102512;-96
2021/03/10 00:20:31;;;;;;;;;13.00;10.00;;;;;10.20;40.42;98705.69;4719554;29;102951;-96
2021/03/10 00:22:58;;;;;;;;;10.00;8.50;;;;;10.12;40.53;98690.44;4732099;29;105475;-96
2021/03/10 00:25:28;;;;;;;;;8.75;8.25;;;;;10.12;40.58;98687.72;4737413;29;102859;-96
2021/03/10 00:27:55;;;;;;;;;9.00;6.00;;;;;10.09;40.99;98696.22;4732021;29;102895;-97
2021/03/10 00:30:23;;;;;;;;;9.00;8.75;;;;;10.09;40.53;98690.81;4750734;29;103431;-96
2021/03/10 00:32:50;;;;;;;;;8.25;8.25;;;;;10.10;40.68;98697.03;4732036;29;102257;-96
2021/03/10 00:35:27;;;;;;;;;9.00;8.50;;;;;10.08;40.83;98699.13;4745503;29;102743;-96
2021/03/10 00:38:00;;;;;;;;;12.00;9.00;;;;;10.04;40.90;98692.44;4752990;29;102277;-96
2021/03/10 00:40:27;;;;;;;;;9.50;8.00;;;;;10.08;40.34;98704.53;4734852;29;102248;-96
2021/03/10 00:42:55;;;;;;;;;9.50;9.00;;;;;10.00;40.76;98685.72;4734891;29;103441;-97
2021/03/10 00:45:22;;;;;;;;;10.00;7.00;;;;;10.02;40.65;98700.72;4749323;29;102908;-96
2021/03/10 00:47:49;;;;;;;;;11.50;10.25;;;;;10.07;40.60;98709.09;4753545;29;102468;-96
2021/03/10 00:50:18;;;;;;;;;9.75;8.00;;;;;10.03;40.77;98693.47;4729539;29;102308;-96
2021/03/10 00:52:46;;;;;;;;;10.00;9.00;;;;;9.97;40.55;98691.53;4733790;29;108489;-96
2021/03/10 00:55:13;;;;;;;;;11.75;9.25;;;;;10.02;40.63;98683.69;4726001;29;103039;-96
2021/03/10 00:57:41;;;;;;;;;10.75;9.75;;;;;9.98;40.85;98694.06;4744519;29;102469;-96
2021/03/10 01:00:08;;;;;;;;;11.00;9.00;;;;;10.03;40.67;98690.78;4732942;29;102584;-96
2021/03/10 01:02:35;;;;;;;;;14.25;11.25;;;;;9.96;40.70;98684.47;4742820;29;102951;-96
2021/03/10 01:05:05;;;;;;;;;17.50;10.75;;;;;9.98;40.54;98696.75;4693271;29;102615;-96
2021/03/10 01:07:32;;;;;;;;;11.25;11.00;;;;;10.07;40.50;98708.25;4711532;29;102962;-96
2021/03/10 01:10:06;;;;;;;;;13.25;10.75;;;;;9.96;40.45;98674.50;4699730;29;102333;-96
2021/03/10 01:12:34;;;;;;;;;13.00;10.00;;;;;9.96;40.58;98682.59;4751505;29;105440;-96
2021/03/10 01:15:13;;;;;;;;;11.75;10.50;;;;;9.99;40.81;98686.78;4714181;29;102122;-96
2021/03/10 01:17:44;;;;;;;;;11.50;10.25;;;;;9.99;40.19;98681.38;4743362;29;102838;-97
2021/03/10 01:20:16;;;;;;;;;15.00;10.75;;;;;9.96;40.83;98679.91;4720797;29;102664;-96
2021/03/10 01:22:44;;;;;;;;;15.25;9.25;;;;;10.03;40.21;98690.78;4711237;29;105991;-96
2021/03/10 01:25:12;;;;;;;;;10.50;9.00;;;;;9.91;40.50;98676.09;4703062;29;102630;-96
2021/03/10 01:27:39;;;;;;;;;12.75;11.50;;;;;9.92;40.65;98672.38;4708107;29;102732;-96
2021/03/10 01:30:09;;;;;;;;;9.25;9.25;;;;;9.98;40.53;98694.06;4749541;29;102226;-96
2021/03/10 01:32:36;;;;;;;;;11.50;10.00;;;;;9.90;40.36;98671.75;4749744;29;104044;-96
2021/03/10 01:35:06;;;;;;;;;11.50;10.00;;;;;9.90;40.70;98671.75;4729965;29;103497;-96
2021/03/10 01:37:33;;;;;;;;;8.00;7.25;;;;;9.95;40.88;98690.91;4739837;29;102591;-96
2021/03/10 01:40:06;;;;;;;;;11.00;9.50;;;;;9.84;40.84;98666.09;4712235;29;102467;-96
2021/03/10 01:42:33;;;;;;;;;10.50;8.50;;;;;9.94;40.58;98675.72;4767908;29;105993;-96
2021/03/10 01:45:06;;;;;;;;;10.75;9.75;;;;;9.88;40.71;98668.41;4708513;29;102714;-96
2021/03/10 01:47:39;;;;;;;;;9.25;9.00;;;;;9.85;40.18;98661.53;4744981;29;102368;-96
2021/03/10 01:50:09;;;;;;;;;16.00;11.25;;;;;9.83;40.83;98655.47;4701723;29;102834;-96
2021/03/10 01:52:37;;;;;;;;;10.75;10.00;;;;;9.88;40.93;98663.84;4721607;29;105308;-96
2021/03/10 01:55:05;;;;;;;;;12.00;10.25;;;;;9.90;40.32;98667.19;4756954;29;102959;-96
2021/03/10 01:57:33;;;;;;;;;14.75;10.50;;;;;9.84;40.14;98658.00;4696259;29;103158;-96
2021/03/10 02:00:00;;;;;;;;;13.25;11.00;;;;;9.86;40.17;98658.63;4749966;29;102408;-96
2021/03/10 02:02:27;;;;;;;;;10.00;9.75;;;;;9.88;40.31;98661.13;4734181;29;105242;-96
2021/03/10 02:04:55;;;;;;;;;15.50;11.00;;;;;9.96;39.94;98670.94;4714074;29;104611;-96
2021/03/10 02:07:52;;;;;;;;;14.75;12.00;;;;;9.91;39.80;98659.91;4697779;29;102217;-96
2021/03/10 02:10:26;;;;;;;;;12.50;11.25;;;;;9.89;40.43;98660.13;4660932;29;102185;-96
2021/03/10 02:13:13;;;;;;;;;14.75;11.75;;;;;9.96;40.14;98668.25;4738600;29;106836;-96
2021/03/10 02:16:11;;;;;;;;;15.00;10.00;;;;;9.89;40.56;98665.50;4626942;29;102538;-96
2021/03/10 02:18:47;;;;;;;;;16.75;12.00;;;;;9.86;40.29;98658.63;4658247;29;102130;-96
2021/03/10 02:21:26;;;;;;;;;13.75;12.00;;;;;9.86;40.60;98664.03;4729093;29;104030;-96
2021/03/10 02:24:34;;;;;;;;;15.00;12.25;;;;;9.95;40.36;98672.00;4723293;29;106713;-96
2021/03/10 02:27:32;;;;;;;;;13.75;11.50;;;;;9.95;40.53;98666.59;4717969;29;105480;-96
2021/03/10 02:30:07;;;;;;;;;17.25;12.00;;;;;9.88;40.31;98654.91;4733817;29;102425;-96
2021/03/10 02:32:36;;;;;;;;;13.50;11.25;;;;;9.89;40.57;98667.38;4751850;29;103430;-96
2021/03/10 02:35:04;;;;;;;;;16.75;12.00;;;;;9.86;40.24;98655.91;4727865;29;103866;-96
2021/03/10 02:37:31;;;;;;;;;12.25;11.50;;;;;9.92;40.80;98678.63;4706570;29;102525;-96
2021/03/10 02:39:59;;;;;;;;;16.25;12.25;;;;;9.83;40.53;98660.88;4709094;29;102380;-96
2021/03/10 02:42:31;;;;;;;;;13.25;10.25;;;;;9.90;40.45;98666.34;4739415;29;102656;-96
2021/03/10 02:44:58;;;;;;;;;16.50;12.25;;;;;9.78;40.37;98661.47;4735679;29;103414;-96
2021/03/10 02:47:28;;;;;;;;;11.25;9.75;;;;;9.79;40.33;98659.59;4753159;29;102009;-96
2021/03/10 02:49:56;;;;;;;;;12.00;10.50;;;;;9.79;40.43;98670.41;4728157;29;102585;-96
2021/03/10 02:52:24;;;;;;;;;13.25;10.75;;;;;9.78;40.12;98672.25;4682846;29;102058;-96
2021/03/10 02:54:51;;;;;;;;;14.00;11.50;;;;;9.78;40.65;98666.03;4675157;29;107880;-96
2021/03/10 02:57:19;;;;;;;;;11.75;9.25;;;;;9.72;40.41;98658.72;4736089;29;102511;-96
2021/03/10 02:59:48;;;;;;;;;11.50;11.00;;;;;9.75;40.45;98672.66;4744405;29;101925;-96
2021/03/10 03:02:16;;;;;;;;;10.00;9.25;;;;;9.73;40.84;98668.47;4719465;29;104668;-96
2021/03/10 03:04:44;;;;;;;;;12.00;10.00;;;;;9.68;40.27;98655.56;4747148;29;103670;-96
2021/03/10 03:07:18;;;;;;;;;13.75;11.75;;;;;9.71;40.63;98660.59;4714724;29;102354;-96
2021/03/10 03:09:49;;;;;;;;;15.00;11.00;;;;;9.72;40.79;98672.22;4724357;29;102796;-96
2021/03/10 03:12:16;;;;;;;;;15.75;13.75;;;;;9.78;40.47;98666.88;4691549;29;103790;-96
2021/03/10 03:14:43;;;;;;;;;15.50;14.00;;;;;9.74;40.32;98654.78;4724230;29;105754;-96
2021/03/10 03:17:13;;;;;;;;;14.50;11.00;;;;;9.70;40.28;98656.22;4743817;29;102259;-96
2021/03/10 03:19:41;;;;;;;;;11.75;10.75;;;;;9.82;39.91;98672.69;4739871;29;102527;-96
2021/03/10 03:22:08;;;;;;;;;13.25;10.00;;;;;9.73;40.43;98652.28;4715855;29;102856;-96
2021/03/10 03:24:36;;;;;;;;;13.00;11.75;;;;;9.77;40.64;98646.28;4726800;29;103175;-96
2021/03/10 03:27:04;;;;;;;;;13.50;10.25;;;;;9.78;40.12;98645.25;4753888;29;102422;-96
2021/03/10 03:29:31;;;;;;;;;13.25;10.00;;;;;9.78;40.75;98671.44;4730026;29;102758;-96
2021/03/10 03:31:58;;;;;;;;;12.75;10.25;;;;;9.78;39.91;98669.56;4716876;29;102846;-96
2021/03/10 03:34:26;;;;;;;;;13.50;10.75;;;;;9.74;40.37;98671.00;4726350;29;104112;-96
2021/03/10 03:36:53;;;;;;;;;12.00;10.25;;;;;9.76;40.10;98657.31;4731197;29;102111;-96
2021/03/10 03:39:21;;;;;;;;;12.25;10.75;;;;;9.77;39.71;98664.38;4749324;29;102848;-96
2021/03/10 03:41:50;;;;;;;;;14.00;12.50;;;;;9.82;40.10;98678.09;4721599;29;102653;-96
2021/03/10 03:44:19;;;;;;;;;14.50;12.25;;;;;9.82;39.85;98678.09;4725482;29;103758;-96
2021/03/10 03:46:46;;;;;;;;;18.00;14.75;;;;;9.79;40.68;98668.53;4746347;29;102853;-96
2021/03/10 03:49:14;;;;;;;;;17.00;13.25;;;;;9.79;40.13;98673.09;4716594;29;102970;-96
2021/03/10 03:51:41;;;;;;;;;17.50;14.50;;;;;9.77;39.74;98675.97;4733143;29;102713;-96
2021/03/10 03:54:09;;;;;;;;;17.00;14.50;;;;;9.83;40.58;98686.03;4730613;29;103354;-96
2021/03/10 03:56:36;;;;;;;;;16.50;12.50;;;;;9.82;40.08;98684.34;4731865;29;103415;-96
2021/03/10 03:59:04;;;;;;;;;16.50;15.50;;;;;9.76;40.57;98676.19;4736176;29;102348;-96
2021/03/10 04:01:31;;;;;;;;;12.50;11.25;;;;;9.83;40.04;98694.13;4733990;29;102245;-96
2021/03/10 04:04:02;;;;;;;;;17.00;15.75;;;;;9.82;40.53;98700.53;4739812;29;102127;-96
2021/03/10 04:06:29;;;;;;;;;16.50;14.00;;;;;9.75;39.89;98688.03;4734074;29;102672;-96
2021/03/10 04:08:57;;;;;;;;;19.00;13.25;;;;;9.75;40.35;98680.75;4722789;29;102228;-96
2021/03/10 04:11:24;;;;;;;;;14.75;11.75;;;;;9.76;40.17;98685.13;4745918;29;103513;-96
2021/03/10 04:13:51;;;;;;;;;12.50;11.00;;;;;9.75;39.91;98678.06;4718513;29;107265;-96
2021/03/10 04:16:18;;;;;;;;;16.00;12.00;;;;;9.79;40.11;98678.50;4682006;29;102478;-96
2021/03/10 04:18:45;;;;;;;;;13.25;12.50;;;;;9.83;39.97;98691.41;4774618;29;102226;-96
2021/03/10 04:21:12;;;;;;;;;9.50;9.00;;;;;9.84;40.00;98693.09;4734088;29;103597;-96
2021/03/10 04:23:39;;;;;;;;;13.50;10.00;;;;;9.92;40.04;98688.59;4732569;29;105830;-96
2021/03/10 04:26:07;;;;;;;;;10.25;9.00;;;;;9.94;40.26;98681.97;4762873;29;102766;-96
2021/03/10 04:28:35;;;;;;;;;12.25;9.75;;;;;9.96;39.77;98684.47;4715927;29;102666;-96
2021/03/10 04:31:03;;;;;;;;;10.50;9.00;;;;;9.95;40.00;98667.41;4751509;29;102766;-96
2021/03/10 04:33:33;;;;;;;;;11.50;10.50;;;;;10.03;39.85;98677.25;4736893;29;104705;-96
2021/03/10 04:36:00;;;;;;;;;10.75;10.75;;;;;10.04;40.02;98678.94;4736783;29;102204;-96
2021/03/10 04:38:28;;;;;;;;;9.00;9.00;;;;;10.01;40.06;98679.31;4737351;29;103328;-96
2021/03/10 04:40:56;;;;;;;;;13.25;10.50;;;;;10.05;39.56;98684.13;4753047;29;102966;-96
2021/03/10 04:43:24;;;;;;;;;12.25;9.25;;;;;10.03;39.91;98680.81;4727029;29;108573;-96
2021/03/10 04:45:51;;;;;;;;;11.75;10.00;;;;;10.15;40.24;98697.28;4744066;29;102214;-96
2021/03/10 04:48:18;;;;;;;;;11.00;9.75;;;;;10.16;39.49;98704.41;4772162;29;102687;-96
2021/03/10 04:50:46;;;;;;;;;11.00;10.00;;;;;10.16;40.05;98699.84;4730241;29;104464;-96
2021/03/10 04:53:13;;;;;;;;;11.25;10.00;;;;;10.05;39.38;98686.81;4726303;29;104584;-96
2021/03/10 04:55:41;;;;;;;;;12.50;10.00;;;;;10.09;39.65;98687.25;4731083;29;102334;-96
2021/03/10 04:58:08;;;;;;;;;12.00;11.00;;;;;10.07;39.06;98692.88;4751804;29;102210;-96
2021/03/10 05:00:36;;;;;;;;;9.50;9.50;;;;;10.08;39.49;98693.72;4746340;29;102658;-96
2021/03/10 05:03:03;;;;;;;;;10.50;8.75;;;;;10.05;39.75;98684.13;4751456;29;104419;-96
2021/03/10 05:05:31;;;;;;;;;15.25;11.25;;;;;10.10;39.69;98695.19;4722511;29;102589;-96
2021/03/10 05:07:58;;;;;;;;;13.25;9.00;;;;;10.05;39.66;98689.53;4713921;29;102449;-96
2021/03/10 05:10:26;;;;;;;;;12.75;11.25;;;;;10.05;39.58;98699.50;4739245;29;102451;-96
2021/03/10 05:12:53;;;;;;;;;16.75;12.75;;;;;10.07;39.45;98705.56;4734508;29;106700;-96
2021/03/10 05:15:20;;;;;;;;;15.00;12.25;;;;;10.02;39.65;98697.19;4763743;29;102799;-96
2021/03/10 05:17:47;;;;;;;;;14.00;10.50;;;;;10.04;39.82;98711.34;4717136;29;102300;-96
2021/03/10 05:20:14;;;;;;;;;17.50;13.00;;;;;10.02;39.86;98702.59;4740194;29;102517;-96
2021/03/10 05:22:41;;;;;;;;;13.25;11.75;;;;;10.04;39.52;98706.75;4717999;29;104818;-96
2021/03/10 05:25:09;;;;;;;;;20.25;14.75;;;;;10.00;39.74;98702.78;4723306;29;105016;-96
2021/03/10 05:27:37;;;;;;;;;15.50;12.25;;;;;10.07;39.29;98713.66;4732330;29;102138;-96
2021/03/10 05:30:08;;;;;;;;;18.25;15.50;;;;;9.99;39.76;98697.59;4734645;29;102825;-96
2021/03/10 05:32:38;;;;;;;;;15.00;14.50;;;;;10.03;39.56;98698.88;4735976;29;104229;-96
2021/03/10 05:35:06;;;;;;;;;15.00;11.75;;;;;10.02;40.04;98705.31;4753786;29;102259;-96
2021/03/10 05:37:37;;;;;;;;;10.00;8.25;;;;;9.95;39.52;98702.53;4740453;29;102680;-96
2021/03/10 05:40:05;;;;;;;;;18.00;16.25;;;;;9.97;39.75;98710.44;4746682;29;106374;-96
2021/03/10 05:42:32;;;;;;;;;16.00;15.00;;;;;10.06;39.42;98725.47;4762390;29;104460;-96
2021/03/10 05:45:00;;;;;;;;;14.25;13.75;;;;;9.97;39.60;98705.03;4734927;29;102233;-96
2021/03/10 05:47:27;;;;;;;;;17.25;16.00;;;;;9.95;39.50;98713.34;4708426;29;102459;-96
2021/03/10 05:49:58;;;;;;;;;14.00;12.75;;;;;9.96;39.23;98711.47;4747464;29;102377;-96
2021/03/10 05:52:26;;;;;;;;;15.50;11.00;;;;;9.93;39.21;98719.97;4735022;29;104355;-96
2021/03/10 05:54:53;;;;;;;;;10.50;9.75;;;;;9.92;39.95;98704.78;4724091;29;102933;-96
2021/03/10 05:57:20;;;;;;;;;18.00;14.75;;;;;9.94;39.98;98722.50;4742528;29;102513;-96
2021/03/10 05:59:47;;;;;;;;;16.25;14.75;;;;;9.92;39.70;98721.00;4754123;29;103042;-96
2021/03/10 06:02:18;;;;;;;;;17.25;14.00;;;;;9.92;39.59;98721.84;4759730;29;105376;-96
2021/03/10 06:04:45;;;;;;;;;15.50;15.25;;;;;9.89;39.79;98718.69;4707285;29;102327;-96
2021/03/10 06:07:20;;;;;;;;;11.00;10.25;;;;;9.93;39.47;98733.47;4713023;29;107789;-96
2021/03/10 06:10:14;;;;;;;;;13.25;12.00;;;;;9.96;39.92;98741.19;4725155;29;102185;-96
2021/03/10 06:12:45;;;;;;;;;15.25;12.50;;;;;9.85;39.74;98726.34;4687711;29;107986;-96
2021/03/10 06:15:14;;;;;;;;;16.00;12.75;;;;;9.89;39.64;98737.59;4715513;29;102380;-96
2021/03/10 06:17:44;;;;;;;;;12.75;9.00;;;;;9.93;40.01;98752.38;4725408;29;102553;-96
2021/03/10 06:20:27;;;;;;;;;17.00;11.00;;;;;9.93;40.10;98749.69;4743404;29;102269;-96
2021/03/10 06:22:55;;;;;;;;;15.00;13.25;;;;;9.82;39.69;98737.50;4744335;29;106819;-96
2021/03/10 06:25:25;;;;;;;;;12.25;11.25;;;;;9.82;39.42;98737.50;4703943;29;103930;-96
2021/03/10 06:27:56;;;;;;;;;17.75;15.75;;;;;9.85;39.99;98750.66;4731953;29;102921;-97
2021/03/10 06:30:34;;;;;;;;;15.50;11.50;;;;;9.89;39.62;98764.59;4775174;29;102599;-96
2021/03/10 06:33:03;;;;;;;;;16.75;15.00;;;;;9.81;39.66;98757.47;4656234;29;108777;-97
2021/03/10 06:35:32;;;;;;;;;17.00;14.00;;;;;9.83;40.09;98750.00;4753862;29;102664;-96
2021/03/10 06:38:16;;;;;;;;;14.50;13.25;;;;;9.73;39.64;98734.09;4746224;29;102691;-96
2021/03/10 06:40:51;;;;;;;;;21.25;15.00;;;;;9.78;39.91;98752.44;4722021;29;103724;-96
2021/03/10 06:43:18;;;;;;;;;17.00;15.00;;;;;9.76;40.18;98749.94;4739307;29;104091;-96
2021/03/10 06:45:45;;;;;;;;;18.50;16.25;;;;;9.77;39.97;98757.00;4720986;29;102631;-96
2021/03/10 06:48:16;;;;;;;;;19.75;16.25;;;;;9.81;39.75;98758.31;4746409;29;102772;-96
2021/03/10 06:50:44;;;;;;;;;16.00;14.00;;;;;9.79;39.94;98757.66;4739000;29;102166;-96
2021/03/10 06:53:11;;;;;;;;;20.50;17.50;;;;;9.76;40.15;98760.75;4724307;29;104085;-96
2021/03/10 06:55:38;;;;;;;;;21.00;18.50;;;;;9.78;39.82;98769.47;4735847;29;102692;-96
2021/03/10 06:58:06;;;;;;;;;16.50;15.25;;;;;9.72;39.43;98772.97;4741548;29;102873;-96
2021/03/10 07:00:33;;;;;;;;;15.50;12.75;;;;;9.79;39.61;98775.72;4741488;29;102429;-96
2021/03/10 07:03:01;;;;;;;;;12.75;12.25;;;;;9.75;39.53;98780.66;4739965;29;102754;-96
2021/03/10 07:05:29;;;;;;;;;16.75;15.50;;;;;9.75;39.40;98786.06;4749042;29;103128;-96
2021/03/10 07:07:58;;;;;;;;;13.25;11.25;;;;;9.71;40.19;98784.78;4762036;29;102676;-96
2021/03/10 07:10:27;;;;;;;;;13.25;13.25;;;;;9.79;39.55;98797.31;4719049;29;102894;-96
2021/03/10 07:12:56;;;;;;;;;19.25;15.50;;;;;9.75;39.53;98796.03;4740478;29;110251;-96
2021/03/10 07:15:23;;;;;;;;;15.75;11.00;;;;;9.74;39.66;98795.19;4729273;29;102962;-96
2021/03/10 07:17:50;;;;;;;;;18.25;14.00;;;;;9.76;39.77;98809.34;4738400;29;102197;-96
2021/03/10 07:20:31;;;;;;;;;19.75;16.75;;;;;9.72;39.82;98785.63;4703839;29;102822;-96
2021/03/10 07:23:06;;;;;;;;;12.00;12.00;;;;;9.79;39.51;98808.97;4720588;29;103723;-96
2021/03/10 07:25:34;;;;;;;;;19.25;17.00;;;;;9.75;39.88;98807.69;4724402;29;102941;-96
2021/03/10 07:28:03;;;;;;;;;21.25;17.00;;;;;9.74;39.89;98802.44;4732639;29;103548;-96
2021/03/10 07:30:39;;;;;;;;;22.50;18.00;;;;;9.79;40.01;98808.97;4715639;29;102984;-96
2021/03/10 07:33:08;;;;;;;;;20.25;16.75;;;;;9.75;39.51;98802.28;4726865;29;103678;-96
2021/03/10 07:35:55;;;;;;;;;20.75;17.00;;;;;9.74;40.02;98800.59;4720647;29;103018;-97
2021/03/10 07:38:26;;;;;;;;;23.75;19.50;;;;;9.80;39.82;98804.41;4732244;29;102746;-96
2021/03/10 07:40:56;;;;;;;;;18.25;17.00;;;;;9.80;39.93;98810.63;4748377;29;102992;-96
2021/03/10 07:43:43;;;;;;;;;20.50;16.25;;;;;9.80;39.81;98823.31;4732390;29;104141;-96
2021/03/10 07:46:24;;;;;;;;;20.00;17.00;;;;;9.70;40.05;98793.06;4667990;29;102906;-96
2021/03/10 07:48:51;;;;;;;;;17.00;14.50;;;;;9.74;39.90;98802.44;4737233;29;102694;-96
2021/03/10 07:51:34;;;;;;;;;22.00;17.50;;;;;9.78;39.95;98807.28;4732631;29;102967;-96
2021/03/10 07:54:02;;;;;;;;;18.50;17.00;;;;;9.76;39.51;98805.81;4731345;29;108977;-96
2021/03/10 07:56:31;;;;;;;;;19.00;16.00;;;;;9.76;39.82;98805.81;4757032;29;103062;-96
2021/03/10 07:59:08;;;;;;;;;16.00;14.00;;;;;9.80;40.02;98816.03;4733643;29;103701;-96
2021/03/10 08:01:35;;;;;;;;;18.25;16.75;;;;;9.74;40.26;98816.78;4673142;29;103133;-96
2021/03/10 08:04:15;;;;;;;;;16.25;15.50;;;;;9.75;40.39;98815.78;4743858;29;103344;-96
2021/03/10 08:06:47;;;;;;;;;20.25;16.25;;;;;9.75;39.96;98821.19;4725371;29;102991;-96
2021/03/10 08:09:15;;;;;;;;;16.25;14.50;;;;;9.80;40.20;98821.44;4755040;29;105215;-96
2021/03/10 08:11:45;;;;;;;;;19.75;17.75;;;;;9.78;40.14;98823.47;4764194;29;102598;-96
2021/03/10 08:14:13;;;;;;;;;18.25;13.75;;;;;9.77;40.14;98821.81;4731275;29;104752;-96
2021/03/10 08:16:59;;;;;;;;;15.75;14.75;;;;;9.76;39.63;98825.56;4729806;29;102997;-96
2021/03/10 08:19:29;;;;;;;;;14.50;13.25;;;;;9.79;40.14;98819.75;4745454;29;102639;-96
2021/03/10 08:21:57;;;;;;;;;14.75;14.00;;;;;9.78;40.25;98820.78;4736967;29;103203;-96
2021/03/10 08:24:24;;;;;;;;;17.25;13.25;;;;;9.75;40.09;98804.13;4727510;29;105939;-96
2021/03/10 08:26:59;;;;;;;;;20.75;15.50;;;;;9.80;40.32;98815.19;4731296;29;102908;-96
2021/03/10 08:29:26;;;;;;;;;17.50;13.25;;;;;9.78;40.14;98807.28;4729577;29;102927;-96
2021/03/10 08:31:55;;;;;;;;;13.50;11.50;;;;;9.79;39.73;98811.66;4730226;29;103045;-96
2021/03/10 08:34:36;;;;;;;;;15.75;15.50;;;;;9.75;39.83;98807.69;4742987;29;103773;-96
2021/03/10 08:37:05;;;;;;;;;15.25;11.00;;;;;9.75;39.98;98817.63;4719723;29;102925;-96
2021/03/10 08:39:40;;;;;;;;;15.50;10.75;;;;;9.75;40.21;98810.38;4727124;29;102769;-96
2021/03/10 08:42:07;;;;;;;;;15.25;13.00;;;;;9.73;39.97;98812.41;4759723;29;104896;-96
2021/03/10 08:44:43;;;;;;;;;13.75;12.25;;;;;9.78;39.69;98812.69;4715675;29;104148;-96
2021/03/10 08:47:12;;;;;;;;;15.25;13.25;;;;;9.77;40.26;98821.00;4729681;29;102966;-96
2021/03/10 08:49:39;;;;;;;;;16.50;14.00;;;;;9.76;39.83;98812.06;4731197;29;102947;-96
2021/03/10 08:52:16;;;;;;;;;16.00;15.00;;;;;9.74;40.06;98816.78;4707111;29;104212;-96
2021/03/10 08:54:46;;;;;;;;;12.25;11.25;;;;;9.77;40.21;98816.41;4715086;29;104056;-96
2021/03/10 08:57:13;;;;;;;;;17.75;13.50;;;;;9.72;39.96;98808.06;4726662;29;103032;-96
2021/03/10 08:59:40;;;;;;;;;16.50;13.50;;;;;9.75;40.10;98817.63;4703843;29;103786;-96
2021/03/10 09:02:07;;;;;;;;;16.50;15.50;;;;;9.76;40.07;98819.31;4712982;29;103531;-96
2021/03/10 09:04:48;;;;;;;;;15.75;14.75;;;;;9.74;39.99;98815.94;4698273;29;104556;-96
2021/03/10 09:07:17;;;;;;;;;15.00;13.75;;;;;9.73;40.28;98820.50;4705028;29;102788;-95
2021/03/10 09:09:44;;;;;;;;;15.75;14.75;;;;;9.79;39.84;98825.16;4722914;29;102641;-96
2021/03/10 09:12:12;;;;;;;;;13.75;11.00;;;;;9.76;39.57;98822.00;4712689;29;102878;-96
2021/03/10 09:14:39;;;;;;;;;11.50;11.00;;;;;9.79;40.05;98818.91;4707884;29;104002;-96
2021/03/10 09:17:05;;;;;;;;;12.75;12.00;;;;;9.82;39.53;98821.22;4729830;29;102926;-96
2021/03/10 09:19:40;;;;;;;;;13.00;11.75;;;;;9.85;39.77;98813.59;4714674;29;102593;-96
2021/03/10 09:22:11;;;;;;;;;11.50;10.75;;;;;9.86;39.66;98820.66;4711608;29;103535;-96
2021/03/10 09:25:02;;;;;;;;;16.00;12.00;;;;;9.88;40.12;98815.06;4730308;29;109462;-96
2021/03/10 09:27:30;;;;;;;;;15.75;10.75;;;;;9.90;39.87;98815.75;4727965;29;103003;-96
2021/03/10 09:30:05;;;;;;;;;12.50;11.25;;;;;9.85;40.31;98799.28;4696285;29;104605;-96
2021/03/10 09:32:40;;;;;;;;;9.25;8.75;;;;;9.92;40.00;98807.41;4728474;29;102886;-96
2021/03/10 09:35:22;;;;;;;;;9.25;9.00;;;;;9.96;39.85;98817.66;4728272;29;103862;-96
2021/03/10 09:37:57;;;;;;;;;12.75;11.00;;;;;9.91;39.94;98798.47;4759911;29;102828;-96
2021/03/10 09:40:38;;;;;;;;;11.00;10.00;;;;;9.92;39.59;98797.47;4698747;29;102844;-96
2021/03/10 09:43:09;;;;;;;;;13.00;10.50;;;;;10.00;39.50;98799.19;4746563;29;104372;-96
2021/03/10 09:45:37;;;;;;;;;11.00;10.75;;;;;10.01;40.19;98801.72;4741036;29;104075;-96
2021/03/10 09:48:08;;;;;;;;;10.50;8.50;;;;;9.98;39.76;98804.81;4728160;29;102803;-96
2021/03/10 09:50:40;;;;;;;;;16.75;12.25;;;;;10.01;39.97;98800.88;4736997;29;110096;-96
2021/03/10 09:53:21;;;;;;;;;11.25;10.00;;;;;10.07;39.54;98805.50;4722823;29;103907;-96
2021/03/10 09:55:48;;;;;;;;;11.25;9.00;;;;;10.03;39.87;98791.56;4681323;29;104412;-96
2021/03/10 09:58:18;;;;;;;;;10.25;9.00;;;;;10.05;39.96;98794.88;4729307;29;102794;-96
2021/03/10 10:00:45;;;;;;;;;10.50;9.00;;;;;10.10;39.79;98791.59;4715827;29;102636;-96
2021/03/10 10:03:12;;;;;;;;;13.00;9.75;;;;;10.06;39.89;98799.28;4732954;29;102851;-96
2021/03/10 10:05:39;;;;;;;;;12.75;9.75;;;;;10.09;39.35;98789.94;4715057;29;103719;-96
2021/03/10 10:08:08;;;;;;;;;10.75;8.50;;;;;10.12;39.83;98801.22;4754114;29;103241;-96
2021/03/10 10:10:35;;;;;;;;;13.50;10.00;;;;;10.11;39.42;98801.41;4729360;29;102786;-96
2021/03/10 10:13:03;;;;;;;;;9.50;8.75;;;;;10.08;39.77;98794.53;4733316;29;102465;-96
2021/03/10 10:15:32;;;;;;;;;12.00;10.00;;;;;10.10;39.87;98794.31;4730878;29;103943;-96
2021/03/10 10:18:02;;;;;;;;;10.75;10.00;;;;;10.13;39.65;98797.44;4728829;29;102930;-96
2021/03/10 10:20:30;;;;;;;;;7.50;6.25;;;;;10.12;39.54;98790.41;4731560;29;102830;-96
2021/03/10 10:23:00;;;;;;;;;11.25;9.00;;;;;10.08;39.54;98790.97;4725740;29;102957;-96
2021/03/10 10:25:31;;;;;;;;;13.50;10.00;;;;;10.13;39.27;98805.56;4727901;29;109189;-96
2021/03/10 10:27:59;;;;;;;;;10.75;10.00;;;;;10.15;39.41;98802.69;4730932;29;102895;-96
2021/03/10 10:30:25;;;;;;;;;9.50;8.75;;;;;10.14;39.75;98792.88;4730139;29;102951;-96
2021/03/10 10:32:52;;;;;;;;;11.25;10.50;;;;;10.11;39.85;98793.28;4710614;29;102957;-96
2021/03/10 10:35:19;;;;;;;;;13.75;11.00;;;;;10.19;39.90;98809.38;4731014;29;103268;-96
2021/03/10 10:37:46;;;;;;;;;9.00;8.00;;;;;10.18;39.70;98799.59;4692486;29;103092;-96
2021/03/10 10:40:15;;;;;;;;;9.00;9.00;;;;;10.19;38.76;98798.59;4726800;29;102628;-96
2021/03/10 10:42:47;;;;;;;;;10.75;9.50;;;;;10.18;39.33;98802.31;4729593;29;102976;-96
2021/03/10 10:45:14;;;;;;;;;9.50;8.75;;;;;10.21;39.79;98807.34;4725346;29;104742;-96
2021/03/10 10:47:41;;;;;;;;;12.75;11.00;;;;;10.22;39.67;98809.03;4724082;29;102842;-96
2021/03/10 10:50:09;;;;;;;;;10.50;9.25;;;;;10.19;39.46;98809.38;4727751;29;104177;-96
2021/03/10 10:52:36;;;;;;;;;11.75;11.25;;;;;10.18;39.50;98802.31;4708754;29;102995;-96
2021/03/10 10:55:05;;;;;;;;;9.00;8.50;;;;;10.21;39.58;98796.53;4715067;29;104049;-96
2021/03/10 10:57:32;;;;;;;;;9.25;7.50;;;;;10.17;39.33;98797.97;4727718;29;102773;-96
2021/03/10 11:00:06;;;;;;;;;10.00;9.75;;;;;10.20;39.69;98805.66;4725450;29;102844;-96
2021/03/10 11:02:35;;;;;;;;;14.50;9.00;;;;;10.22;39.64;98800.91;4730665;29;102983;-96
2021/03/10 11:05:02;;;;;;;;;9.25;9.00;;;;;10.23;39.49;98791.75;4726811;29;103434;-96
2021/03/10 11:07:29;;;;;;;;;9.25;8.25;;;;;10.24;39.65;98785.34;4706832;29;102901;-96
2021/03/10 11:09:56;;;;;;;;;15.75;9.25;;;;;10.30;39.58;98795.38;4721905;29;102821;-96
2021/03/10 11:12:23;;;;;;;;;8.75;8.00;;;;;10.27;39.41;98787.63;4718700;29;104929;-96
2021/03/10 11:14:50;;;;;;;;;8.00;6.00;;;;;10.34;39.75;98796.66;4724420;29;104428;-96
2021/03/10 11:17:18;;;;;;;;;16.00;11.00;;;;;10.34;39.24;98793.94;4730370;29;102846;-96
2021/03/10 11:19:45;;;;;;;;;11.75;10.50;;;;;10.39;39.19;98794.22;4723449;29;102911;-96
2021/03/10 11:22:13;;;;;;;;;10.00;9.00;;;;;10.42;39.39;98792.97;4726341;29;104366;-96
2021/03/10 11:24:39;;;;;;;;;12.50;12.25;;;;;10.37;39.26;98780.03;4723499;29;110780;-96
2021/03/10 11:27:06;;;;;;;;;11.00;10.00;;;;;10.43;39.05;98790.09;4727666;29;103058;-96
2021/03/10 11:29:35;;;;;;;;;11.50;10.25;;;;;10.42;39.19;98780.28;4726007;29;102909;-96